Time;durP1;ratioP1;P1;durP2;ratioP2;P2;SDS_P1;SDS_P2;PMS_P1;PMS_P2;Temp;Humidity;BMP_temperature;BMP_pressure;BME280_temperature;BME280_humidity;BME280_pressure;Samples;Min_cycle;Max_cycle;Signal;HPM_P1;HPM_P2
2022/03/12 00:00:00;;;;;;;331.63;75.97;;;;;;;1.03;57.85;100775.31;342398;28;1137;-67
2022/03/12 00:00:11;;;;;;;331.90;76.95;;;;;;;1.02;57.55;100777.03;342216;28;1255;-68
2022/03/12 00:00:26;;;;;;;331.42;76.25;;;;;;;0.99;57.60;100772.69;342029;28;1218;-68
2022/03/12 00:00:36;;;;;;;332.05;77.43;;;;;;;1.02;57.60;100773.56;342323;28;1484;-68
2022/03/12 00:00:48;;;;;;;331.43;77.40;;;;;;;1.01;58.11;100775.28;343252;28;1977;-68
2022/03/12 00:01:00;;;;;;;332.15;77.00;;;;;;;1.00;57.43;100777.00;343745;28;880;-68
2022/03/12 00:01:10;;;;;;;331.38;75.95;;;;;;;0.99;57.25;100774.41;343797;28;1065;-68
2022/03/12 00:01:21;;;;;;;332.23;76.00;;;;;;;0.99;57.74;100772.69;343871;28;1274;-68
2022/03/12 00:01:32;;;;;;;331.10;75.88;;;;;;;0.98;57.82;100775.22;340654;28;1469;-68
2022/03/12 00:01:42;;;;;;;332.80;76.53;;;;;;;0.99;58.71;100775.25;336214;29;2024;-68
2022/03/12 00:01:53;;;;;;;334.50;78.57;;;;;;;0.98;57.98;100767.50;337456;29;1260;-68
2022/03/12 00:02:04;;;;;;;334.95;80.03;;;;;;;0.98;58.35;100776.09;340570;28;2206;-68
2022/03/12 00:02:14;;;;;;;333.50;79.10;;;;;;;0.96;58.36;100766.59;339583;29;1284;-68
2022/03/12 00:02:24;;;;;;;334.77;78.97;;;;;;;0.96;57.76;100771.75;339561;29;1626;-68
2022/03/12 00:02:35;;;;;;;335.83;78.03;;;;;;;0.95;58.35;100776.06;342704;28;1060;-68
2022/03/12 00:02:46;;;;;;;335.70;77.40;;;;;;;0.97;58.79;100778.66;342355;28;1236;-68
2022/03/12 00:02:57;;;;;;;332.48;76.50;;;;;;;0.96;58.35;100769.19;342524;28;1082;-68
2022/03/12 00:03:09;;;;;;;332.58;76.45;;;;;;;0.98;58.28;100770.09;340428;28;1846;-68
2022/03/12 00:03:20;;;;;;;332.38;76.00;;;;;;;0.98;58.53;100770.94;340571;28;1810;-68
2022/03/12 00:03:31;;;;;;;332.03;75.30;;;;;;;0.98;58.28;100778.69;342336;28;1775;-68
2022/03/12 00:03:41;;;;;;;332.73;76.68;;;;;;;0.98;58.33;100778.69;342318;28;1417;-68
2022/03/12 00:03:53;;;;;;;333.23;78.00;;;;;;;0.98;58.03;100770.94;344107;28;655;-68
2022/03/12 00:04:06;;;;;;;331.40;77.45;;;;;;;1.00;58.14;100779.56;345125;28;1290;-68
2022/03/12 00:04:16;;;;;;;330.52;77.05;;;;;;;1.03;58.31;100777.88;342914;28;1277;-68
2022/03/12 00:04:26;;;;;;;332.15;78.18;;;;;;;1.02;58.46;100778.72;343882;28;825;-67
2022/03/12 00:04:37;;;;;;;332.90;77.37;;;;;;;0.94;58.65;100769.16;342473;28;1640;-67
2022/03/12 00:04:48;;;;;;;332.02;76.80;;;;;;;0.89;58.50;100770.78;338380;29;1307;-67
2022/03/12 00:04:59;;;;;;;329.67;75.78;;;;;;;0.88;59.23;100773.34;339926;29;1028;-67
2022/03/12 00:05:09;;;;;;;328.80;74.85;;;;;;;0.88;58.96;100773.34;340949;28;1062;-68
2022/03/12 00:05:19;;;;;;;328.80;75.20;;;;;;;0.86;58.77;100770.78;341053;28;1663;-68
2022/03/12 00:05:32;;;;;;;330.83;76.18;;;;;;;0.85;58.75;100781.06;341317;28;905;-68
2022/03/12 00:05:55;;;;;;;331.75;76.43;;;;;;;0.83;58.77;100775.88;343976;28;1500;-68
2022/03/12 00:06:06;;;;;;;328.40;75.03;;;;;;;0.74;59.10;100770.56;340984;28;1314;-68
2022/03/12 00:06:18;;;;;;;328.35;74.97;;;;;;;0.74;59.15;100777.41;342481;28;1259;-68
2022/03/12 00:06:28;;;;;;;328.13;73.88;;;;;;;0.74;58.98;100785.13;339553;28;1299;-69
2022/03/12 00:06:39;;;;;;;328.03;73.33;;;;;;;0.73;59.88;100778.25;340891;28;813;-70
2022/03/12 00:06:49;;;;;;;326.88;73.75;;;;;;;0.72;59.22;100774.81;340351;28;1975;-69
2022/03/12 00:07:00;;;;;;;326.80;74.83;;;;;;;0.73;59.22;100779.13;340924;28;1473;-68
2022/03/12 00:07:11;;;;;;;326.45;73.15;;;;;;;0.72;59.25;100781.66;342509;28;1895;-69
2022/03/12 00:07:22;;;;;;;328.08;72.68;;;;;;;0.72;59.89;100777.38;341225;28;1798;-68
2022/03/12 00:07:32;;;;;;;328.35;72.15;;;;;;;0.72;59.82;100781.66;341180;28;1304;-68
2022/03/12 00:07:43;;;;;;;328.77;73.37;;;;;;;0.72;59.61;100779.09;338653;29;846;-69
2022/03/12 00:07:54;;;;;;;328.85;74.55;;;;;;;0.68;60.09;100780.75;339690;28;1806;-69
2022/03/12 00:08:05;;;;;;;329.70;75.13;;;;;;;0.69;59.71;100782.47;338041;29;1225;-69
2022/03/12 00:08:15;;;;;;;329.27;75.78;;;;;;;0.68;60.29;100774.72;341071;28;2023;-67
2022/03/12 00:08:43;;;;;;;328.77;74.45;;;;;;;0.68;59.82;100778.16;340703;28;960;-70
2022/03/12 00:08:54;;;;;;;331.50;73.38;;;;;;;0.69;60.16;100772.19;340951;28;1830;-68
2022/03/12 00:09:05;;;;;;;331.88;74.03;;;;;;;0.71;59.88;100779.94;338392;28;1563;-67
2022/03/12 00:09:15;;;;;;;331.15;74.45;;;;;;;0.72;60.25;100782.53;341162;28;1928;-67
2022/03/12 00:09:26;;;;;;;327.60;74.33;;;;;;;0.72;59.70;100782.53;342492;28;1564;-67
2022/03/12 00:09:36;;;;;;;326.17;72.75;;;;;;;0.75;60.15;100774.00;339778;29;1221;-67
2022/03/12 00:09:47;;;;;;;323.87;71.57;;;;;;;0.77;60.11;100774.91;338639;29;1006;-67
2022/03/12 00:09:57;;;;;;;325.67;72.63;;;;;;;0.78;59.54;100777.50;340348;28;1316;-68
2022/03/12 00:10:12;;;;;;;329.20;74.03;;;;;;;0.78;59.62;100777.50;341057;28;1398;-68
2022/03/12 00:10:23;;;;;;;330.15;74.03;;;;;;;0.79;59.55;100773.22;342685;28;957;-68
2022/03/12 00:10:34;;;;;;;328.70;72.40;;;;;;;0.79;59.29;100771.50;343813;28;1346;-68
2022/03/12 00:10:46;;;;;;;327.73;72.53;;;;;;;0.78;59.61;100777.50;342344;28;931;-67
2022/03/12 00:10:56;;;;;;;327.88;73.78;;;;;;;0.79;59.61;100784.38;339709;28;1267;-67
2022/03/12 00:11:09;;;;;;;330.13;75.57;;;;;;;0.81;59.10;100782.69;341108;28;952;-67
2022/03/12 00:11:24;;;;;;;331.58;75.32;;;;;;;0.81;59.11;100782.69;341137;28;917;-67
2022/03/12 00:11:35;;;;;;;330.95;73.97;;;;;;;0.80;59.57;100773.25;341448;28;858;-67
2022/03/12 00:11:56;;;;;;;329.90;73.85;;;;;;;0.82;59.18;100779.28;340270;28;843;-67
2022/03/12 00:12:07;;;;;;;329.90;76.25;;;;;;;0.82;59.37;100784.44;342231;28;992;-67
2022/03/12 00:12:19;;;;;;;329.52;76.24;;;;;;;0.84;59.24;100779.31;341013;28;1525;-67
2022/03/12 00:12:32;;;;;;;329.60;74.63;;;;;;;0.82;58.61;100776.72;338538;29;925;-67
2022/03/12 00:12:42;;;;;;;327.98;73.55;;;;;;;0.84;59.28;100780.19;340600;28;2084;-67
2022/03/12 00:12:53;;;;;;;328.15;72.88;;;;;;;0.84;59.29;100781.88;341149;28;1027;-67
2022/03/12 00:13:04;;;;;;;330.92;72.90;;;;;;;0.84;59.10;100780.19;339634;29;1450;-67
2022/03/12 00:13:14;;;;;;;332.70;72.68;;;;;;;0.85;59.07;100784.50;341040;28;947;-67
2022/03/12 00:13:25;;;;;;;333.03;73.47;;;;;;;0.85;59.07;100778.47;342410;28;1236;-67
2022/03/12 00:13:35;;;;;;;329.58;73.20;;;;;;;0.86;59.47;100786.22;339769;29;1469;-68
2022/03/12 00:13:46;;;;;;;330.73;75.23;;;;;;;0.85;58.92;100783.63;340646;28;1026;-67
2022/03/12 00:13:59;;;;;;;333.17;76.10;;;;;;;0.83;59.22;100780.16;339653;28;863;-67
2022/03/12 00:14:10;;;;;;;334.77;77.60;;;;;;;0.81;59.39;100782.69;340861;28;1287;-67
2022/03/12 00:14:22;;;;;;;332.13;76.07;;;;;;;0.83;59.25;100785.31;341226;28;1345;-67
2022/03/12 00:14:35;;;;;;;332.63;75.70;;;;;;;0.83;59.32;100781.03;341159;28;1684;-68
2022/03/12 00:14:48;;;;;;;333.23;74.90;;;;;;;0.82;58.98;100781.88;342474;28;1272;-68
2022/03/12 00:15:01;;;;;;;332.02;75.22;;;;;;;0.82;59.32;100776.72;342466;28;1343;-67
2022/03/12 00:15:12;;;;;;;331.85;76.25;;;;;;;0.81;59.00;100780.13;339624;28;1960;-67
2022/03/12 00:15:23;;;;;;;328.90;75.50;;;;;;;0.82;58.58;100778.41;341351;28;858;-67
2022/03/12 00:15:33;;;;;;;328.88;75.53;;;;;;;0.82;59.29;100781.88;339882;29;924;-68
2022/03/12 00:15:43;;;;;;;328.57;74.33;;;;;;;0.83;59.19;100781.03;341107;28;921;-68
2022/03/12 00:15:56;;;;;;;329.02;73.97;;;;;;;0.82;59.28;100776.72;338501;28;1418;-68
2022/03/12 00:16:09;;;;;;;328.95;74.50;;;;;;;0.82;59.04;100779.28;340677;28;1345;-68
2022/03/12 00:16:23;;;;;;;330.30;74.78;;;;;;;0.83;58.74;100780.16;342181;28;1343;-67
2022/03/12 00:16:34;;;;;;;330.20;74.45;;;;;;;0.83;59.43;100781.03;341568;28;1250;-67
2022/03/12 00:16:44;;;;;;;331.45;75.95;;;;;;;0.82;59.46;100774.13;340351;28;859;-67
2022/03/12 00:16:55;;;;;;;330.77;77.07;;;;;;;0.83;59.51;100778.44;336194;29;1629;-67
2022/03/12 00:17:06;;;;;;;328.80;76.17;;;;;;;0.83;60.01;100781.03;338593;28;1300;-67
2022/03/12 00:17:18;;;;;;;326.92;73.93;;;;;;;0.83;59.17;100775.88;341059;28;1331;-67
2022/03/12 00:17:29;;;;;;;327.80;74.47;;;;;;;0.84;58.69;100779.31;340260;28;1856;-67
2022/03/12 00:17:43;;;;;;;327.98;75.75;;;;;;;0.87;59.52;100787.06;340267;28;1307;-67
2022/03/12 00:17:54;;;;;;;330.63;75.93;;;;;;;0.86;59.36;100781.06;339665;28;1503;-68
2022/03/12 00:18:06;;;;;;;331.87;76.70;;;;;;;0.87;59.50;100782.78;341855;28;915;-68
2022/03/12 00:18:20;;;;;;;334.08;77.40;;;;;;;0.88;59.37;100774.22;339850;29;1259;-68
2022/03/12 00:18:31;;;;;;;331.86;76.24;;;;;;;0.90;59.04;100785.41;336960;29;1305;-68
2022/03/12 00:18:42;;;;;;;331.33;76.60;;;;;;;0.90;60.03;100781.97;339938;29;1256;-68
2022/03/12 00:18:58;;;;;;;332.48;78.08;;;;;;;0.89;59.80;100783.69;338563;29;954;-68
2022/03/12 00:19:08;;;;;;;335.52;79.80;;;;;;;0.90;59.15;100785.41;339258;28;1503;-68
2022/03/12 00:19:20;;;;;;;335.00;79.15;;;;;;;0.91;59.05;100783.69;341252;28;1975;-68
2022/03/12 00:19:32;;;;;;;334.08;78.60;;;;;;;0.91;59.30;100782.00;342416;28;936;-68
2022/03/12 00:19:42;;;;;;;333.48;77.90;;;;;;;0.91;59.79;100786.28;342456;28;1074;-68
2022/03/12 00:19:54;;;;;;;333.90;78.27;;;;;;;0.89;58.85;100781.09;341265;28;790;-68
2022/03/12 00:20:09;;;;;;;334.08;78.20;;;;;;;0.88;59.48;100784.50;340962;28;792;-68
2022/03/12 00:20:22;;;;;;;334.63;78.40;;;;;;;0.88;59.41;100779.34;338683;29;1907;-68
2022/03/12 00:20:33;;;;;;;335.23;78.00;;;;;;;0.89;59.43;100780.22;342506;28;1472;-68
2022/03/12 00:20:48;;;;;;;333.50;78.00;;;;;;;0.89;59.39;100780.22;344022;28;957;-68
2022/03/12 00:21:01;;;;;;;331.17;75.68;;;;;;;0.90;60.34;100777.69;344097;28;1087;-68
2022/03/12 00:21:12;;;;;;;331.63;76.30;;;;;;;0.89;59.98;100787.97;342936;28;881;-68
2022/03/12 00:21:24;;;;;;;333.10;77.38;;;;;;;0.90;59.53;100787.97;342630;28;1587;-68
2022/03/12 00:21:35;;;;;;;332.98;77.45;;;;;;;0.88;59.86;100779.34;338833;28;1336;-68
2022/03/12 00:21:48;;;;;;;330.98;76.63;;;;;;;0.88;59.69;100784.50;340280;28;1354;-68
2022/03/12 00:21:59;;;;;;;330.90;77.30;;;;;;;0.88;59.77;100779.34;340308;28;1073;-68
2022/03/12 00:22:09;;;;;;;330.98;76.85;;;;;;;0.90;59.88;100782.84;339892;29;1162;-68
2022/03/12 00:22:20;;;;;;;330.73;76.10;;;;;;;0.89;59.90;100780.22;338896;28;1992;-68
2022/03/12 00:22:30;;;;;;;330.55;75.53;;;;;;;0.89;59.83;100786.25;342703;28;1383;-68
2022/03/12 00:22:43;;;;;;;331.33;76.10;;;;;;;0.89;59.80;100781.09;344113;28;859;-68
2022/03/12 00:22:55;;;;;;;331.30;74.90;;;;;;;0.91;59.87;100784.56;342742;28;1039;-68
2022/03/12 00:23:11;;;;;;;332.23;75.70;;;;;;;0.90;59.91;100780.25;339971;29;856;-68
2022/03/12 00:23:23;;;;;;;332.15;75.72;;;;;;;0.90;59.56;100777.69;340348;28;1068;-68
2022/03/12 00:23:34;;;;;;;331.02;75.97;;;;;;;0.90;59.53;100782.84;340921;28;1998;-68
2022/03/12 00:23:50;;;;;;;329.63;76.43;;;;;;;0.90;60.01;100787.13;340172;29;901;-68
2022/03/12 00:24:00;;;;;;;329.90;76.43;;;;;;;0.88;60.34;100781.94;340053;28;1299;-68
2022/03/12 00:24:14;;;;;;;329.73;75.83;;;;;;;0.90;60.12;100777.69;338613;29;1187;-68
2022/03/12 00:24:26;;;;;;;331.48;77.07;;;;;;;0.88;59.96;100779.34;339992;29;1086;-68
2022/03/12 00:24:41;;;;;;;332.45;77.07;;;;;;;0.89;59.86;100777.66;341263;28;1360;-68
2022/03/12 00:24:52;;;;;;;332.13;75.97;;;;;;;0.91;60.07;100784.56;339911;28;1879;-68
2022/03/12 00:25:07;;;;;;;329.92;73.90;;;;;;;0.91;60.00;100783.69;339609;29;1590;-68
2022/03/12 00:25:26;;;;;;;331.58;73.97;;;;;;;0.90;59.92;100781.97;341230;28;1089;-68
2022/03/12 00:25:37;;;;;;;331.52;74.95;;;;;;;0.90;59.88;100782.84;341088;28;1486;-68
2022/03/12 00:25:48;;;;;;;332.27;74.60;;;;;;;0.91;60.51;100783.69;342567;28;1236;-68
2022/03/12 00:26:00;;;;;;;334.63;74.72;;;;;;;0.92;60.12;100781.16;339699;29;1558;-68
2022/03/12 00:26:16;;;;;;;333.52;74.85;;;;;;;0.92;60.10;100778.56;340164;28;1257;-68
2022/03/12 00:26:28;;;;;;;332.85;74.07;;;;;;;0.91;60.36;100779.41;341346;28;1352;-68
2022/03/12 00:26:41;;;;;;;330.00;72.93;;;;;;;0.92;59.87;100781.16;338594;29;870;-68
2022/03/12 00:26:51;;;;;;;329.58;74.85;;;;;;;0.90;59.99;100777.69;336512;29;1914;-68
2022/03/12 00:27:01;;;;;;;330.47;75.57;;;;;;;0.91;60.28;100783.69;337534;29;1510;-68
2022/03/12 00:27:13;;;;;;;332.00;75.45;;;;;;;0.91;59.84;100779.41;340756;28;1620;-68
2022/03/12 00:27:23;;;;;;;333.80;75.50;;;;;;;0.91;60.16;100782.00;341122;28;1265;-68
2022/03/12 00:27:34;;;;;;;335.45;76.38;;;;;;;0.89;60.40;100781.09;340161;29;885;-68
2022/03/12 00:27:44;;;;;;;335.87;76.67;;;;;;;0.88;60.08;100779.34;341195;28;839;-68
2022/03/12 00:27:55;;;;;;;332.92;76.25;;;;;;;0.87;60.21;100784.50;340009;28;859;-68
2022/03/12 00:28:08;;;;;;;331.75;74.85;;;;;;;0.83;60.22;100782.72;340130;29;896;-69
2022/03/12 00:28:18;;;;;;;333.52;75.88;;;;;;;0.73;59.86;100781.69;340118;29;896;-68
2022/03/12 00:28:29;;;;;;;334.00;76.50;;;;;;;0.73;60.35;100783.41;339982;29;852;-68
2022/03/12 00:28:40;;;;;;;334.55;75.65;;;;;;;0.70;60.58;100773.03;341186;28;2043;-69
2022/03/12 00:28:54;;;;;;;332.38;74.50;;;;;;;0.66;60.48;100779.84;341215;28;1098;-68
2022/03/12 00:29:04;;;;;;;329.83;74.35;;;;;;;0.62;61.06;100776.34;342684;28;860;-68
2022/03/12 00:29:15;;;;;;;332.80;75.13;;;;;;;0.59;60.71;100778.00;342261;28;786;-68
2022/03/12 00:29:26;;;;;;;334.03;75.17;;;;;;;0.58;60.79;100784.84;342274;28;2170;-67
2022/03/12 00:29:37;;;;;;;335.88;76.45;;;;;;;0.56;60.56;100777.94;342378;28;1896;-68
2022/03/12 00:29:48;;;;;;;335.53;76.87;;;;;;;0.54;60.71;100777.91;339569;28;1874;-68
2022/03/12 00:30:00;;;;;;;334.67;75.88;;;;;;;0.53;60.64;100783.03;340032;28;1307;-68
2022/03/12 00:30:13;;;;;;;335.70;74.40;;;;;;;0.54;60.79;100783.06;339638;29;1070;-68
2022/03/12 00:30:24;;;;;;;335.25;75.43;;;;;;;0.54;61.35;100782.19;342730;28;833;-68
2022/03/12 00:30:35;;;;;;;335.77;76.47;;;;;;;0.51;60.89;100777.00;341277;28;1219;-68
2022/03/12 00:30:47;;;;;;;334.73;75.75;;;;;;;0.48;60.92;100776.94;341470;28;838;-68
2022/03/12 00:30:58;;;;;;;332.38;73.18;;;;;;;0.43;61.63;100783.72;341243;28;1580;-68
2022/03/12 00:31:09;;;;;;;331.75;72.68;;;;;;;0.45;61.08;100776.88;338662;29;1461;-68
2022/03/12 00:31:19;;;;;;;331.33;72.70;;;;;;;0.48;61.00;100772.66;341395;28;845;-68
2022/03/12 00:31:30;;;;;;;334.65;74.28;;;;;;;0.49;60.71;100774.38;342235;28;1232;-69
2022/03/12 00:31:51;;;;;;;332.03;75.00;;;;;;;0.52;61.07;100781.31;338259;29;885;-68
2022/03/12 00:32:05;;;;;;;331.30;75.25;;;;;;;0.57;60.59;100782.25;337100;29;2048;-68
2022/03/12 00:32:15;;;;;;;329.42;74.60;;;;;;;0.60;60.34;100777.16;338525;29;1026;-68
2022/03/12 00:32:27;;;;;;;329.67;73.95;;;;;;;0.64;60.55;100774.66;341332;28;842;-68
2022/03/12 00:32:37;;;;;;;331.77;75.20;;;;;;;0.64;60.25;100773.81;342455;28;1327;-68
2022/03/12 00:32:48;;;;;;;333.70;76.50;;;;;;;0.64;59.97;100778.94;341298;28;898;-68
2022/03/12 00:32:59;;;;;;;334.98;76.47;;;;;;;0.66;60.34;100777.28;342491;28;1519;-67
2022/03/12 00:33:10;;;;;;;337.00;75.47;;;;;;;0.67;59.89;100779.00;342691;28;1284;-67
2022/03/12 00:33:24;;;;;;;336.67;75.95;;;;;;;0.69;59.76;100779.91;341463;28;868;-67
2022/03/12 00:33:34;;;;;;;334.48;75.15;;;;;;;0.71;60.32;100775.66;341957;28;1070;-67
2022/03/12 00:33:45;;;;;;;332.05;74.70;;;;;;;0.74;59.98;100778.28;343893;28;1359;-67
2022/03/12 00:33:55;;;;;;;332.23;75.17;;;;;;;0.74;60.09;100775.69;343814;28;948;-67
2022/03/12 00:34:06;;;;;;;332.98;75.20;;;;;;;0.70;59.75;100778.19;341666;28;1348;-67
2022/03/12 00:34:17;;;;;;;331.67;74.10;;;;;;;0.68;60.11;100774.72;342871;28;907;-67
2022/03/12 00:34:29;;;;;;;333.63;74.25;;;;;;;0.66;59.94;100774.69;342338;28;2071;-67
2022/03/12 00:34:40;;;;;;;337.90;76.97;;;;;;;0.64;60.17;100773.81;341957;28;1030;-67
2022/03/12 00:34:50;;;;;;;339.35;77.97;;;;;;;0.59;60.52;100778.00;342648;28;1450;-67
2022/03/12 00:35:00;;;;;;;341.43;78.17;;;;;;;0.54;60.54;100774.47;341391;29;1369;-67
2022/03/12 00:35:11;;;;;;;341.03;76.73;;;;;;;0.46;59.97;100779.47;340995;29;1908;-67
2022/03/12 00:35:21;;;;;;;342.95;77.00;;;;;;;0.48;60.22;100776.94;340076;29;1061;-67
2022/03/12 00:35:32;;;;;;;340.37;76.27;;;;;;;0.47;60.14;100781.22;342722;28;1492;-67
2022/03/12 00:35:42;;;;;;;340.15;75.15;;;;;;;0.49;60.45;100779.53;342714;28;940;-67
2022/03/12 00:35:53;;;;;;;337.53;74.70;;;;;;;0.49;60.24;100778.66;342729;28;964;-67
2022/03/12 00:36:04;;;;;;;336.45;74.13;;;;;;;0.48;59.90;100777.81;342683;28;865;-67
2022/03/12 00:36:16;;;;;;;334.55;73.78;;;;;;;0.47;60.17;100776.06;340082;29;1924;-68
2022/03/12 00:36:26;;;;;;;336.23;74.50;;;;;;;0.49;60.60;100773.53;344021;28;901;-67
2022/03/12 00:36:37;;;;;;;335.40;75.13;;;;;;;0.52;59.74;100776.16;345468;28;852;-67
2022/03/12 00:36:48;;;;;;;335.83;75.30;;;;;;;0.53;59.88;100776.19;340908;28;1874;-67
2022/03/12 00:36:58;;;;;;;336.40;75.05;;;;;;;0.53;59.99;100783.03;342564;28;1429;-67
2022/03/12 00:37:09;;;;;;;342.20;75.70;;;;;;;0.52;59.91;100783.88;338801;29;1420;-67
2022/03/12 00:37:20;;;;;;;341.48;75.57;;;;;;;0.53;60.61;100783.03;342884;28;1420;-67
2022/03/12 00:37:30;;;;;;;341.65;75.68;;;;;;;0.51;60.67;100771.84;342662;28;1350;-67
2022/03/12 00:37:40;;;;;;;339.40;76.70;;;;;;;0.47;60.03;100776.06;340114;29;822;-67
2022/03/12 00:37:51;;;;;;;338.95;77.03;;;;;;;0.48;60.77;100777.81;342824;28;1666;-67
2022/03/12 00:38:01;;;;;;;339.17;76.83;;;;;;;0.48;60.26;100785.53;342575;28;1280;-67
2022/03/12 00:38:12;;;;;;;338.17;77.47;;;;;;;0.46;60.59;100778.59;341282;28;2144;-67
2022/03/12 00:38:22;;;;;;;339.50;76.93;;;;;;;0.48;60.96;100782.09;341478;29;922;-67
2022/03/12 00:38:33;;;;;;;338.75;77.05;;;;;;;0.50;60.56;100775.25;339820;28;1231;-67
2022/03/12 00:38:44;;;;;;;338.23;75.07;;;;;;;0.52;60.26;100779.59;339588;29;933;-67
2022/03/12 00:38:55;;;;;;;337.52;75.05;;;;;;;0.53;60.33;100780.47;342686;28;1083;-67
2022/03/12 00:39:08;;;;;;;335.33;74.78;;;;;;;0.53;60.21;100780.47;343954;28;1412;-67
2022/03/12 00:39:19;;;;;;;334.73;77.90;;;;;;;0.47;60.46;100788.06;338694;28;1110;-68
2022/03/12 00:39:29;;;;;;;335.75;77.90;;;;;;;0.45;60.51;100777.75;338542;28;2009;-67
2022/03/12 00:39:41;;;;;;;337.90;76.95;;;;;;;0.46;60.25;100783.75;340709;28;1102;-67
2022/03/12 00:39:51;;;;;;;337.35;75.53;;;;;;;0.46;60.51;100776.91;340217;29;2125;-67
2022/03/12 00:40:03;;;;;;;337.95;75.38;;;;;;;0.47;59.70;100781.22;341413;28;2300;-68
2022/03/12 00:40:15;;;;;;;336.83;75.70;;;;;;;0.47;60.94;100781.22;343947;28;928;-68
2022/03/12 00:40:26;;;;;;;335.90;75.47;;;;;;;0.48;60.43;100782.94;341369;28;869;-67
2022/03/12 00:40:37;;;;;;;335.33;75.30;;;;;;;0.48;60.40;100785.53;341478;29;909;-68
2022/03/12 00:40:48;;;;;;;333.02;73.43;;;;;;;0.47;60.72;100780.34;341337;29;1326;-68
2022/03/12 00:41:04;;;;;;;331.95;72.97;;;;;;;0.48;60.45;100782.94;341456;29;1015;-67
2022/03/12 00:41:16;;;;;;;334.48;74.60;;;;;;;0.45;60.39;100787.16;341289;29;2071;-67
2022/03/12 00:41:26;;;;;;;333.80;74.70;;;;;;;0.42;60.55;100780.28;344027;28;1011;-67
2022/03/12 00:41:38;;;;;;;334.73;74.03;;;;;;;0.40;61.13;100783.69;342296;28;2558;-67
2022/03/12 00:41:48;;;;;;;335.50;74.85;;;;;;;0.39;60.35;100781.94;341373;29;1002;-68
2022/03/12 00:41:59;;;;;;;335.25;74.88;;;;;;;0.41;61.38;100787.97;341367;29;947;-68
2022/03/12 00:42:09;;;;;;;332.77;74.20;;;;;;;0.37;60.40;100783.63;340132;28;1326;-68
2022/03/12 00:42:20;;;;;;;334.50;74.05;;;;;;;0.36;61.47;100784.44;339659;29;1846;-68
2022/03/12 00:42:30;;;;;;;334.03;73.57;;;;;;;0.35;60.97;100785.28;340156;29;1212;-67
2022/03/12 00:42:41;;;;;;;335.70;73.30;;;;;;;0.37;61.08;100786.19;342665;28;1194;-67
2022/03/12 00:42:51;;;;;;;334.10;72.97;;;;;;;0.38;61.26;100788.78;343985;28;1419;-67
2022/03/12 00:43:02;;;;;;;334.00;73.23;;;;;;;0.41;60.94;100780.25;342660;28;1522;-67
2022/03/12 00:43:14;;;;;;;331.63;72.93;;;;;;;0.41;61.09;100780.25;343992;28;1356;-67
2022/03/12 00:43:24;;;;;;;331.17;72.95;;;;;;;0.42;61.19;100782.00;341381;29;924;-67
2022/03/12 00:43:35;;;;;;;331.97;73.33;;;;;;;0.42;60.94;100784.56;342739;28;916;-67
2022/03/12 00:43:45;;;;;;;334.83;73.83;;;;;;;0.43;61.08;100783.72;342672;28;1190;-67
2022/03/12 00:43:56;;;;;;;333.23;73.03;;;;;;;0.40;60.49;100778.53;341360;29;988;-67
2022/03/12 00:44:06;;;;;;;331.70;73.13;;;;;;;0.39;60.49;100784.50;343962;28;1038;-67
2022/03/12 00:44:17;;;;;;;330.57;72.93;;;;;;;0.38;60.83;100791.38;342531;28;1899;-67
2022/03/12 00:44:28;;;;;;;330.63;72.78;;;;;;;0.38;60.54;100786.22;341355;29;1368;-67
2022/03/12 00:44:38;;;;;;;330.00;71.27;;;;;;;0.37;60.31;100791.34;345251;28;1964;-67
2022/03/12 00:44:48;;;;;;;326.58;69.13;;;;;;;0.27;60.43;100788.59;341901;28;1184;-68
2022/03/12 00:44:59;;;;;;;331.80;71.10;;;;;;;0.25;60.57;100790.25;341413;29;950;-68
2022/03/12 00:45:10;;;;;;;335.17;72.30;;;;;;;0.25;60.76;100790.25;341310;29;1259;-67
2022/03/12 00:45:21;;;;;;;335.90;73.30;;;;;;;0.28;60.79;100792.03;340777;29;845;-67
2022/03/12 00:45:31;;;;;;;333.52;71.72;;;;;;;0.30;60.64;100783.50;341297;29;1684;-67
2022/03/12 00:45:42;;;;;;;333.63;72.37;;;;;;;0.27;60.65;100792.84;342667;28;1304;-67
2022/03/12 00:45:52;;;;;;;334.23;72.43;;;;;;;0.27;61.19;100798.88;340009;29;1506;-67
2022/03/12 00:46:05;;;;;;;335.50;73.27;;;;;;;0.29;61.00;100793.75;342459;28;1666;-67
2022/03/12 00:46:15;;;;;;;334.50;72.72;;;;;;;0.32;60.90;100794.69;342663;28;1490;-68
2022/03/12 00:46:27;;;;;;;335.27;73.40;;;;;;;0.36;60.89;100780.16;339302;29;2193;-67
2022/03/12 00:46:37;;;;;;;336.55;73.05;;;;;;;0.40;60.71;100791.41;341362;29;1007;-67
2022/03/12 00:46:48;;;;;;;337.30;73.35;;;;;;;0.43;60.97;100791.47;342813;28;1028;-67
2022/03/12 00:46:58;;;;;;;336.47;73.37;;;;;;;0.43;60.28;100788.88;342597;28;1920;-67
2022/03/12 00:47:08;;;;;;;334.02;73.72;;;;;;;0.42;60.72;100788.00;342646;28;1627;-67
2022/03/12 00:47:19;;;;;;;332.63;73.23;;;;;;;0.43;60.93;100786.31;341247;28;1196;-67
2022/03/12 00:47:31;;;;;;;332.20;73.18;;;;;;;0.41;60.39;100793.13;339975;28;1187;-67
2022/03/12 00:47:42;;;;;;;333.83;73.82;;;;;;;0.41;60.62;100786.28;340068;29;989;-67
2022/03/12 00:47:52;;;;;;;336.20;74.28;;;;;;;0.41;60.23;100783.69;338758;29;929;-67
2022/03/12 00:48:04;;;;;;;334.53;73.90;;;;;;;0.40;60.86;100788.81;341175;28;1353;-67
2022/03/12 00:48:16;;;;;;;331.35;72.38;;;;;;;0.36;60.45;100787.91;343981;28;842;-67
2022/03/12 00:48:26;;;;;;;327.85;71.40;;;;;;;0.32;60.94;100797.25;345485;28;1067;-67
2022/03/12 00:48:38;;;;;;;328.10;71.37;;;;;;;0.21;61.23;100787.59;343758;28;2137;-67
2022/03/12 00:48:49;;;;;;;328.85;70.70;;;;;;;0.08;61.82;100783.91;344122;28;948;-67
2022/03/12 00:48:59;;;;;;;332.33;70.07;;;;;;;0.06;61.52;100788.13;342698;28;881;-67
2022/03/12 00:49:09;;;;;;;335.60;69.90;;;;;;;-0.03;61.89;100777.69;345411;28;1486;-67
2022/03/12 00:49:20;;;;;;;350.33;80.07;;;;;;;-0.09;62.79;100783.56;341243;28;1917;-67
2022/03/12 00:49:30;;;;;;;355.35;82.40;;;;;;;-0.20;63.16;100790.19;340928;29;893;-67
2022/03/12 00:49:41;;;;;;;355.97;84.10;;;;;;;-0.27;63.75;100790.03;340523;29;1572;-67
2022/03/12 00:49:51;;;;;;;337.67;72.00;;;;;;;-0.31;64.16;100783.06;341414;29;908;-67
2022/03/12 00:50:01;;;;;;;329.30;68.63;;;;;;;-0.35;63.69;100783.00;342679;28;985;-67
2022/03/12 00:50:12;;;;;;;324.75;66.07;;;;;;;-0.31;64.40;100785.63;343038;28;1728;-67
2022/03/12 00:50:22;;;;;;;324.47;66.90;;;;;;;-0.31;63.71;100783.94;342146;28;2208;-67
2022/03/12 00:50:33;;;;;;;327.52;68.47;;;;;;;-0.30;63.93;100790.81;342832;28;1332;-67
2022/03/12 00:50:43;;;;;;;327.37;68.20;;;;;;;-0.26;64.54;100790.06;345446;28;867;-68
2022/03/12 00:50:55;;;;;;;327.42;68.10;;;;;;;-0.31;64.17;100790.78;342739;28;960;-67
2022/03/12 00:51:06;;;;;;;330.08;70.88;;;;;;;-0.39;64.19;100788.91;345312;28;1463;-67
2022/03/12 00:51:17;;;;;;;334.60;71.60;;;;;;;-0.39;65.13;100778.63;343684;28;1482;-67
2022/03/12 00:51:27;;;;;;;342.10;76.30;;;;;;;-0.38;65.09;100788.06;342974;28;1325;-67
2022/03/12 00:51:41;;;;;;;337.52;72.82;;;;;;;-0.40;64.96;100782.03;342621;28;1155;-67
2022/03/12 00:51:52;;;;;;;332.20;70.03;;;;;;;-0.31;65.18;100786.50;344019;28;896;-67
2022/03/12 00:52:03;;;;;;;330.95;69.30;;;;;;;-0.28;64.84;100796.88;341297;28;1214;-67
2022/03/12 00:52:13;;;;;;;328.92;67.57;;;;;;;-0.36;65.14;100788.97;342543;28;1188;-67
2022/03/12 00:52:24;;;;;;;342.33;81.28;;;;;;;-0.44;65.51;100795.69;342727;28;1064;-69
2022/03/12 00:52:34;;;;;;;352.87;88.90;;;;;;;-0.45;65.28;100796.53;342720;28;1167;-68
2022/03/12 00:52:44;;;;;;;358.08;92.25;;;;;;;-0.57;65.63;100788.53;343911;28;1404;-68
2022/03/12 00:52:55;;;;;;;353.07;88.47;;;;;;;-0.59;65.73;100786.75;344080;28;895;-68
2022/03/12 00:53:05;;;;;;;358.63;96.03;;;;;;;-0.58;66.38;100791.91;343858;28;1489;-68
2022/03/12 00:53:16;;;;;;;358.00;94.87;;;;;;;-0.55;65.87;100794.56;342697;28;1188;-68